METAR Data
IDs: Format: Raw Decoded Include TAF

Data at: 1059 UTC 16 Feb 2019

PAHX 161056Z AUTO 02008KT 9SM -SN OVC012 M13/M14 A2995 RMK AO2 SLP143 P0000 T11281144 FZRANO
PAHX 160956Z AUTO 02011KT 3SM -SN BR OVC012 M13/M14 A2993 RMK AO2 SLP136 P0000 T11281144 FZRANO
PAHX 160941Z AUTO 02011KT 3SM -SN BR OVC014 M13/M14 A2992 RMK AO2 P0000 FZRANO
PAHX 160930Z AUTO 03011KT 2 1/2SM -SN BR OVC014 M13/M14 A2991 RMK AO2 P0000 FZRANO
PAHX 160856Z AUTO 03011KT 4SM -SN BR OVC018 M13/M15 A2991 RMK AO2 SLP130 P0000 60000 T11331150 411331167 53004 FZRANO
PAHX 160756Z AUTO 02011KT 9SM -SN OVC018 M13/M16 A2989 RMK AO2 SLP123 P0000 T11331156 FZRANO
PAHX 160719Z AUTO 02009KT 9SM -SN SCT022 OVC028 M13/M16 A2988 RMK AO2 P0000 FZRANO
PAHX 160656Z AUTO 03011KT 9SM -SN OVC032 M13/M16 A2989 RMK AO2 SLP122 P0000 T11331161 FZRANO
PAHX 160645Z AUTO 02010KT 9SM -SN SCT025 OVC032 M13/M16 A2989 RMK AO2 P0000 FZRANO
PAHX 160556Z AUTO 03009KT 8SM -SN OVC027 M14/M17 A2990 RMK AO2 SLP126 P0000 60000 T11391167 11139 21150 56009 FZRANO
PAHX 160534Z AUTO 03011KT 3SM -SN FEW023 BKN029 OVC038 M14/M17 A2990 RMK AO2 P0000 FZRANO
PAHX 160517Z AUTO 04011KT 3SM -SN SCT023 SCT029 OVC038 M14/M17 A2990 RMK AO2 P0000 FZRANO
PAHX 160504Z AUTO 03013KT 2 1/2SM -SN SCT023 BKN027 OVC045 M14/M18 A2990 RMK AO2 P0000 FZRANO
PAHX 160456Z AUTO 02010KT 7SM -SN FEW028 SCT035 OVC045 M14/M18 A2990 RMK AO2 SNB51 SLP128 P0000 T11391178 FZRANO
PAHX 160356Z AUTO 03011KT 10SM BKN095 M14/M18 A2991 RMK AO2 SLP130 T11441178 FZRANO
PAHX 160256Z AUTO 04011KT 10SM OVC110 M14/M18 A2992 RMK AO2 SLP135 T11391178 56016 FZRANO
PAHX 160156Z AUTO 03012KT 10SM SCT120 M15/M18 A2994 RMK AO2 SLP139 T11501183 FZRANO
PAHX 160056Z AUTO 03007KT 10SM CLR M14/M18 A2993 RMK AO2 SLP138 T11441183 FZRANO
PAHX 152356Z AUTO 03012KT 10SM CLR M15/M19 A2997 RMK AO2 SLP151 T11501189 11150 21161 58030 FZRANO
PAHX 152256Z AUTO 03009KT 10SM CLR M16/M19 A3002 RMK AO2 SLP166 T11561194 FZRANO
PAHX 152156Z AUTO 03009KT 10SM SCT021 M15/M19 A3004 RMK AO2 SLP176 T11501194 FZRANO
PAHX 152140Z AUTO 02008KT 10SM OVC019 M15/M19 A3005 RMK AO2 CIG 013V022 FZRANO
PAHX 152056Z AUTO 04012KT 10SM OVC014 M15/M19 A3006 RMK AO2 SLP180 T11501189 58006 FZRANO
PAHX 151956Z AUTO 04008KT 10SM OVC024 M16/M19 A3007 RMK AO2 SLP184 T11561189 FZRANO
PAHX 151856Z AUTO 03009KT 10SM OVC026 M16/M19 A3007 RMK AO2 SLP186 T11611189 FZRANO
PAHX 151756Z AUTO 03013KT 10SM OVC028 M16/M19 A3008 RMK AO2 SLP187 60000 T11611189 11161 21167 56017 FZRANO
PAHX 151706Z AUTO 03011KT 10SM SCT014 OVC028 M16/M19 A3009 RMK AO2 FZRANO
PAHX 151656Z AUTO 03012KT 10SM BKN014 OVC028 M16/M19 A3009 RMK AO2 SLP193 T11611189 FZRANO
PAHX 151556Z AUTO 04013KT 10SM OVC012 M16/M19 A3010 RMK AO2 SNE24 SLP196 P0000 T11611194 FZRANO
PAHX 151456Z AUTO 03009KT 9SM -SN OVC010 M16/M19 A3013 RMK AO2 SLP204 P0000 60000 T11611194 58003 FZRANO
PAHX 151356Z AUTO 04010KT 9SM -SN OVC010 M16/M19 A3013 RMK AO2 SNB1258 SLP206 P0000 T11611194 FZRANO
PAHX 151256Z AUTO 03011KT 9SM OVC012 M17/M19 A3014 RMK AO2 SNE1158B39E56 SLP207 P0000 T11671194 FZRANO
PAHX 151156Z AUTO 03010KT 9SM -SN OVC014 M16/M19 A3014 RMK AO2 SLP207 P0000 60000 T11611194 11156 21167 53012 FZRANO
PAHX 151111Z AUTO 04010KT 9SM -SN OVC014 M16/M19 A3013 RMK AO2 P0000 FZRANO
PAHX 151056Z AUTO 04011KT 9SM -SN OVC016 M16/M19 A3013 RMK AO2 SLP205 P0000 T11611194 FZRANO
PAHX 150956Z AUTO 05009KT 9SM -SN OVC018 M16/M19 A3010 RMK AO2 SNB41 SLP195 P0000 T11561189 FZRANO
PAHX 150856Z AUTO 03010KT 10SM OVC022 M16/M19 A3010 RMK AO2 SNE14 SLP196 P0000 60000 T11611189 411561189 53009 FZRANO
PAHX 150756Z AUTO 04010KT 9SM -SN OVC028 M16/M19 A3009 RMK AO2 SNE12B51 SLP191 P0000 T11611189 FZRANO
PAHX 150656Z AUTO 04010KT 9SM -SN BKN038 BKN080 M17/M19 A3008 RMK AO2 SLP187 P0000 T11671194 FZRANO
PAHX 150556Z AUTO 04009KT 9SM -SN FEW029 BKN041 OVC050 M16/M19 A3008 RMK AO2 SLP186 P0000 60000 T11611189 11156 21161 50001 FZRANO
PAHX 150456Z AUTO 03009KT 9SM -SN FEW035 BKN047 BKN070 M16/M19 A3008 RMK AO2 SLP188 P0000 T11611189 FZRANO
PAHX 150440Z AUTO 04008KT 8SM -SN FEW017 BKN035 OVC047 M16/M19 A3008 RMK AO2 P0000 FZRANO
PAHX 150427Z AUTO 04011KT 3SM -SN BKN019 BKN027 OVC033 M16/M19 A3008 RMK AO2 P0000 FZRANO
PAHX 150415Z AUTO 04010KT 2 1/2SM -SN OVC019 M16/M19 A3008 RMK AO2 P0000 FZRANO
PAHX 150356Z AUTO 04012KT 5SM -SN BKN021 BKN026 OVC043 M16/M19 A3007 RMK AO2 SLP186 P0000 T11561189 FZRANO
PAHX 150354Z AUTO 04012KT 5SM -SN BKN021 BKN026 OVC043 M16/M19 A3007 RMK AO2 P0000 FZRANO
PAHX 150324Z AUTO 04010KT 3SM -SN BKN027 OVC039 M16/M19 A3007 RMK AO2 P0000 FZRANO
PAHX 150312Z AUTO 05011KT 2SM -SN BKN026 OVC030 M16/M19 A3007 RMK AO2 P0000 FZRANO
PAHX 150256Z AUTO 04008KT 8SM -SN SCT024 BKN029 OVC044 M16/M19 A3007 RMK AO2 SNB37 SLP185 P0000 60000 T11561189 56014 FZRANO
PAHX 150156Z AUTO 03008KT 10SM OVC065 M16/M19 A3009 RMK AO2 SLP191 T11561189 FZRANO
PAHX 150056Z AUTO 04011KT 10SM OVC080 M16/M18 A3008 RMK AO2 SLP188 T11611183 FZRANO
PAHX 142356Z AUTO 03009KT 10SM OVC110 M16/M18 A3011 RMK AO2 SLP199 T11611183 11156 21189 58027 FZRANO